Mount Hope, Ohio
Current Conditions -  °F | °C
As of 4:56 AM on Sunday 26 Oct 2014 (Local Time) from KBJJ Reporting Station
Clear Clear  
Wind Chill: 43°   Ceiling: Unl
Heat Index: 47°   Visibility: 10mi
Dew Point: 33°   Wind: 8mph
Humidity: 59%   Direction: 300°WNW
Pressure: 29.86"   Gusts: NA
Location:  40.62°N, 81.78°W
Report Text: KBJJ 260856Z AUTO 30007KT 10SM CLR 08/01 A2986 RMK AO2 SLP111 T00830006 51009 TSNO
Loading
Personal Weather Stations






























Interactive Weather Map
Tropical Storm Tracking
New forecast layout! Learn more

10-Day Weather Forecast

Advertisements
Track Severe Weather on mobile